sensor_id;sensor_type;location;lat;lon;timestamp;P1;durP1;ratioP1;P2;durP2;ratioP2
4835;SDS011;2432;51.226;6.904;2022-12-07T00:01:25;39.97;;;17.70;;
4835;SDS011;2432;51.226;6.904;2022-12-07T00:03:57;25.83;;;16.30;;
4835;SDS011;2432;51.226;6.904;2022-12-07T00:07:04;29.40;;;16.10;;
4835;SDS011;2432;51.226;6.904;2022-12-07T00:09:23;34.77;;;17.30;;
4835;SDS011;2432;51.226;6.904;2022-12-07T00:11:50;26.97;;;17.60;;
4835;SDS011;2432;51.226;6.904;2022-12-07T00:14:18;30.93;;;16.60;;
4835;SDS011;2432;51.226;6.904;2022-12-07T00:16:45;28.27;;;17.10;;
4835;SDS011;2432;51.226;6.904;2022-12-07T00:19:14;30.70;;;16.77;;
4835;SDS011;2432;51.226;6.904;2022-12-07T00:21:41;27.90;;;15.73;;
4835;SDS011;2432;51.226;6.904;2022-12-07T00:24:08;31.93;;;18.83;;
4835;SDS011;2432;51.226;6.904;2022-12-07T00:26:37;30.67;;;17.43;;
4835;SDS011;2432;51.226;6.904;2022-12-07T00:29:09;32.40;;;16.93;;
4835;SDS011;2432;51.226;6.904;2022-12-07T00:31:40;31.63;;;17.23;;
4835;SDS011;2432;51.226;6.904;2022-12-07T00:34:07;32.23;;;16.77;;
4835;SDS011;2432;51.226;6.904;2022-12-07T00:36:39;32.90;;;17.70;;
4835;SDS011;2432;51.226;6.904;2022-12-07T00:39:06;28.17;;;16.40;;
4835;SDS011;2432;51.226;6.904;2022-12-07T00:41:32;30.17;;;16.73;;
4835;SDS011;2432;51.226;6.904;2022-12-07T00:43:59;28.53;;;16.57;;
4835;SDS011;2432;51.226;6.904;2022-12-07T00:46:25;33.20;;;17.90;;
4835;SDS011;2432;51.226;6.904;2022-12-07T00:48:53;29.20;;;18.33;;
4835;SDS011;2432;51.226;6.904;2022-12-07T00:51:20;32.23;;;18.23;;
4835;SDS011;2432;51.226;6.904;2022-12-07T00:53:49;35.93;;;18.80;;
4835;SDS011;2432;51.226;6.904;2022-12-07T00:56:26;26.40;;;17.40;;
4835;SDS011;2432;51.226;6.904;2022-12-07T00:58:54;29.47;;;17.50;;
4835;SDS011;2432;51.226;6.904;2022-12-07T01:01:29;29.00;;;17.53;;
4835;SDS011;2432;51.226;6.904;2022-12-07T01:03:58;31.80;;;19.00;;
4835;SDS011;2432;51.226;6.904;2022-12-07T01:06:27;28.80;;;18.13;;
4835;SDS011;2432;51.226;6.904;2022-12-07T01:08:54;36.60;;;19.47;;
4835;SDS011;2432;51.226;6.904;2022-12-07T01:11:22;31.70;;;19.40;;
4835;SDS011;2432;51.226;6.904;2022-12-07T01:13:51;28.30;;;17.60;;
4835;SDS011;2432;51.226;6.904;2022-12-07T01:16:18;34.10;;;18.30;;
4835;SDS011;2432;51.226;6.904;2022-12-07T01:18:47;29.93;;;18.00;;
4835;SDS011;2432;51.226;6.904;2022-12-07T01:21:17;31.73;;;18.40;;
4835;SDS011;2432;51.226;6.904;2022-12-07T01:23:47;29.73;;;18.70;;
4835;SDS011;2432;51.226;6.904;2022-12-07T01:26:15;36.13;;;19.40;;
4835;SDS011;2432;51.226;6.904;2022-12-07T01:28:43;32.07;;;18.33;;
4835;SDS011;2432;51.226;6.904;2022-12-07T01:31:11;25.37;;;16.80;;
4835;SDS011;2432;51.226;6.904;2022-12-07T01:33:42;31.00;;;18.37;;
4835;SDS011;2432;51.226;6.904;2022-12-07T01:36:14;32.77;;;18.43;;
4835;SDS011;2432;51.226;6.904;2022-12-07T01:38:44;32.03;;;18.40;;
4835;SDS011;2432;51.226;6.904;2022-12-07T01:41:12;28.67;;;18.17;;
4835;SDS011;2432;51.226;6.904;2022-12-07T01:46:47;30.70;;;18.87;;
4835;SDS011;2432;51.226;6.904;2022-12-07T01:49:17;34.00;;;19.33;;
4835;SDS011;2432;51.226;6.904;2022-12-07T01:51:49;30.40;;;19.10;;
4835;SDS011;2432;51.226;6.904;2022-12-07T01:54:18;31.30;;;19.50;;
4835;SDS011;2432;51.226;6.904;2022-12-07T01:56:48;30.87;;;19.03;;
4835;SDS011;2432;51.226;6.904;2022-12-07T01:59:18;36.77;;;20.07;;
4835;SDS011;2432;51.226;6.904;2022-12-07T02:01:47;27.13;;;18.33;;
4835;SDS011;2432;51.226;6.904;2022-12-07T02:04:14;34.50;;;18.80;;
4835;SDS011;2432;51.226;6.904;2022-12-07T02:06:41;28.07;;;18.40;;
4835;SDS011;2432;51.226;6.904;2022-12-07T02:09:10;32.63;;;19.00;;
4835;SDS011;2432;51.226;6.904;2022-12-07T02:11:38;29.83;;;19.00;;
4835;SDS011;2432;51.226;6.904;2022-12-07T02:14:05;26.77;;;18.23;;
4835;SDS011;2432;51.226;6.904;2022-12-07T02:21:58;29.30;;;18.57;;
4835;SDS011;2432;51.226;6.904;2022-12-07T02:30:22;29.60;;;19.00;;
4835;SDS011;2432;51.226;6.904;2022-12-07T02:35:30;30.40;;;18.70;;
4835;SDS011;2432;51.226;6.904;2022-12-07T02:38:02;37.03;;;19.93;;
4835;SDS011;2432;51.226;6.904;2022-12-07T02:40:42;30.07;;;18.60;;
4835;SDS011;2432;51.226;6.904;2022-12-07T02:43:26;26.73;;;18.00;;
4835;SDS011;2432;51.226;6.904;2022-12-07T02:46:04;30.00;;;18.67;;
4835;SDS011;2432;51.226;6.904;2022-12-07T02:48:34;29.90;;;18.33;;
4835;SDS011;2432;51.226;6.904;2022-12-07T02:51:03;31.07;;;18.93;;
4835;SDS011;2432;51.226;6.904;2022-12-07T02:53:30;37.87;;;19.17;;
4835;SDS011;2432;51.226;6.904;2022-12-07T02:56:03;30.77;;;19.27;;
4835;SDS011;2432;51.226;6.904;2022-12-07T03:07:17;28.30;;;18.50;;
4835;SDS011;2432;51.226;6.904;2022-12-07T03:09:48;30.93;;;18.40;;
4835;SDS011;2432;51.226;6.904;2022-12-07T03:12:27;30.97;;;18.77;;
4835;SDS011;2432;51.226;6.904;2022-12-07T03:15:11;28.50;;;17.23;;
4835;SDS011;2432;51.226;6.904;2022-12-07T03:17:43;29.60;;;18.60;;
4835;SDS011;2432;51.226;6.904;2022-12-07T03:20:13;32.07;;;16.77;;
4835;SDS011;2432;51.226;6.904;2022-12-07T03:22:43;34.30;;;18.77;;
4835;SDS011;2432;51.226;6.904;2022-12-07T03:25:12;29.87;;;18.70;;
4835;SDS011;2432;51.226;6.904;2022-12-07T03:27:45;27.80;;;18.13;;
4835;SDS011;2432;51.226;6.904;2022-12-07T03:30:19;30.27;;;18.20;;
4835;SDS011;2432;51.226;6.904;2022-12-07T03:33:09;33.87;;;18.33;;
4835;SDS011;2432;51.226;6.904;2022-12-07T03:35:40;27.80;;;16.90;;
4835;SDS011;2432;51.226;6.904;2022-12-07T03:38:21;33.97;;;19.07;;
4835;SDS011;2432;51.226;6.904;2022-12-07T03:43:57;28.87;;;17.57;;
4835;SDS011;2432;51.226;6.904;2022-12-07T03:46:38;29.87;;;17.50;;
4835;SDS011;2432;51.226;6.904;2022-12-07T03:55:06;31.27;;;16.60;;
4835;SDS011;2432;51.226;6.904;2022-12-07T03:57:37;25.90;;;17.17;;
4835;SDS011;2432;51.226;6.904;2022-12-07T04:00:06;28.40;;;17.57;;
4835;SDS011;2432;51.226;6.904;2022-12-07T04:02:34;29.67;;;17.87;;
4835;SDS011;2432;51.226;6.904;2022-12-07T04:05:01;37.57;;;18.53;;
4835;SDS011;2432;51.226;6.904;2022-12-07T04:07:29;32.83;;;17.73;;
4835;SDS011;2432;51.226;6.904;2022-12-07T04:09:55;30.30;;;16.90;;
4835;SDS011;2432;51.226;6.904;2022-12-07T04:12:22;29.70;;;17.07;;
4835;SDS011;2432;51.226;6.904;2022-12-07T04:14:49;28.70;;;16.93;;
4835;SDS011;2432;51.226;6.904;2022-12-07T04:17:16;27.63;;;16.87;;
4835;SDS011;2432;51.226;6.904;2022-12-07T04:19:42;42.63;;;16.67;;
4835;SDS011;2432;51.226;6.904;2022-12-07T04:22:09;30.60;;;17.63;;
4835;SDS011;2432;51.226;6.904;2022-12-07T04:24:35;35.60;;;20.27;;
4835;SDS011;2432;51.226;6.904;2022-12-07T04:27:02;28.00;;;16.60;;
4835;SDS011;2432;51.226;6.904;2022-12-07T04:29:28;29.00;;;17.80;;
4835;SDS011;2432;51.226;6.904;2022-12-07T04:31:55;35.97;;;17.10;;
4835;SDS011;2432;51.226;6.904;2022-12-07T04:34:22;28.00;;;16.20;;
4835;SDS011;2432;51.226;6.904;2022-12-07T04:36:48;29.83;;;18.67;;
4835;SDS011;2432;51.226;6.904;2022-12-07T04:41:49;25.77;;;16.30;;
4835;SDS011;2432;51.226;6.904;2022-12-07T04:44:16;28.17;;;16.70;;
4835;SDS011;2432;51.226;6.904;2022-12-07T04:46:43;28.63;;;16.40;;
4835;SDS011;2432;51.226;6.904;2022-12-07T04:49:10;25.60;;;16.07;;
4835;SDS011;2432;51.226;6.904;2022-12-07T04:51:38;37.13;;;17.53;;
4835;SDS011;2432;51.226;6.904;2022-12-07T04:54:05;24.43;;;15.90;;
4835;SDS011;2432;51.226;6.904;2022-12-07T04:56:31;29.97;;;15.60;;
4835;SDS011;2432;51.226;6.904;2022-12-07T04:58:58;27.17;;;16.40;;
4835;SDS011;2432;51.226;6.904;2022-12-07T05:01:25;30.63;;;16.57;;
4835;SDS011;2432;51.226;6.904;2022-12-07T05:03:51;26.53;;;16.07;;
4835;SDS011;2432;51.226;6.904;2022-12-07T05:06:18;27.70;;;14.23;;
4835;SDS011;2432;51.226;6.904;2022-12-07T05:08:45;28.27;;;15.33;;
4835;SDS011;2432;51.226;6.904;2022-12-07T05:11:12;31.03;;;14.13;;
4835;SDS011;2432;51.226;6.904;2022-12-07T05:13:59;25.40;;;14.10;;
4835;SDS011;2432;51.226;6.904;2022-12-07T05:16:26;25.83;;;14.87;;
4835;SDS011;2432;51.226;6.904;2022-12-07T05:18:54;25.87;;;13.80;;
4835;SDS011;2432;51.226;6.904;2022-12-07T05:21:20;25.03;;;14.90;;
4835;SDS011;2432;51.226;6.904;2022-12-07T05:23:47;25.33;;;12.70;;
4835;SDS011;2432;51.226;6.904;2022-12-07T05:26:13;26.47;;;14.67;;
4835;SDS011;2432;51.226;6.904;2022-12-07T05:28:40;24.97;;;13.97;;
4835;SDS011;2432;51.226;6.904;2022-12-07T05:31:07;27.23;;;14.20;;
4835;SDS011;2432;51.226;6.904;2022-12-07T05:33:33;29.53;;;13.70;;
4835;SDS011;2432;51.226;6.904;2022-12-07T05:36:00;30.83;;;14.87;;
4835;SDS011;2432;51.226;6.904;2022-12-07T05:38:31;25.30;;;12.87;;
4835;SDS011;2432;51.226;6.904;2022-12-07T05:41:02;24.43;;;12.80;;
4835;SDS011;2432;51.226;6.904;2022-12-07T05:43:32;22.63;;;12.00;;
4835;SDS011;2432;51.226;6.904;2022-12-07T05:45:58;28.40;;;13.27;;
4835;SDS011;2432;51.226;6.904;2022-12-07T05:48:25;21.77;;;11.70;;
4835;SDS011;2432;51.226;6.904;2022-12-07T05:50:52;25.80;;;12.60;;
4835;SDS011;2432;51.226;6.904;2022-12-07T05:53:19;22.23;;;10.77;;
4835;SDS011;2432;51.226;6.904;2022-12-07T05:55:48;21.70;;;12.00;;
4835;SDS011;2432;51.226;6.904;2022-12-07T05:58:15;23.00;;;11.43;;
4835;SDS011;2432;51.226;6.904;2022-12-07T06:01:00;24.30;;;10.90;;
4835;SDS011;2432;51.226;6.904;2022-12-07T06:03:26;27.10;;;11.50;;
4835;SDS011;2432;51.226;6.904;2022-12-07T06:05:53;23.00;;;11.27;;
4835;SDS011;2432;51.226;6.904;2022-12-07T06:08:20;18.83;;;10.73;;
4835;SDS011;2432;51.226;6.904;2022-12-07T06:10:46;25.43;;;11.60;;
4835;SDS011;2432;51.226;6.904;2022-12-07T06:13:33;26.97;;;11.70;;
4835;SDS011;2432;51.226;6.904;2022-12-07T06:16:00;25.30;;;11.10;;
4835;SDS011;2432;51.226;6.904;2022-12-07T06:18:26;27.30;;;11.27;;
4835;SDS011;2432;51.226;6.904;2022-12-07T06:20:53;23.93;;;11.20;;
4835;SDS011;2432;51.226;6.904;2022-12-07T06:23:19;20.63;;;11.20;;
4835;SDS011;2432;51.226;6.904;2022-12-07T06:25:46;23.80;;;11.67;;
4835;SDS011;2432;51.226;6.904;2022-12-07T06:28:12;24.07;;;12.33;;
4835;SDS011;2432;51.226;6.904;2022-12-07T06:30:39;23.80;;;12.37;;
4835;SDS011;2432;51.226;6.904;2022-12-07T06:33:05;23.20;;;11.70;;
4835;SDS011;2432;51.226;6.904;2022-12-07T06:35:32;25.00;;;11.93;;
4835;SDS011;2432;51.226;6.904;2022-12-07T06:37:59;26.43;;;11.30;;
4835;SDS011;2432;51.226;6.904;2022-12-07T06:40:26;27.77;;;11.20;;
4835;SDS011;2432;51.226;6.904;2022-12-07T06:42:52;27.03;;;11.50;;
4835;SDS011;2432;51.226;6.904;2022-12-07T06:45:19;22.40;;;11.93;;
4835;SDS011;2432;51.226;6.904;2022-12-07T06:47:45;24.23;;;12.33;;
4835;SDS011;2432;51.226;6.904;2022-12-07T06:50:12;22.57;;;11.97;;
4835;SDS011;2432;51.226;6.904;2022-12-07T06:52:38;27.13;;;12.27;;
4835;SDS011;2432;51.226;6.904;2022-12-07T06:55:05;23.10;;;11.30;;
4835;SDS011;2432;51.226;6.904;2022-12-07T06:57:35;26.60;;;11.60;;
4835;SDS011;2432;51.226;6.904;2022-12-07T07:00:02;24.40;;;11.60;;
4835;SDS011;2432;51.226;6.904;2022-12-07T07:02:29;20.80;;;10.77;;
4835;SDS011;2432;51.226;6.904;2022-12-07T07:04:56;22.20;;;11.07;;
4835;SDS011;2432;51.226;6.904;2022-12-07T07:07:23;19.93;;;10.80;;
4835;SDS011;2432;51.226;6.904;2022-12-07T07:09:49;25.70;;;11.50;;
4835;SDS011;2432;51.226;6.904;2022-12-07T07:12:16;19.50;;;10.60;;
4835;SDS011;2432;51.226;6.904;2022-12-07T07:14:42;23.63;;;9.97;;
4835;SDS011;2432;51.226;6.904;2022-12-07T07:17:09;20.57;;;9.73;;
4835;SDS011;2432;51.226;6.904;2022-12-07T07:19:36;28.40;;;9.90;;
4835;SDS011;2432;51.226;6.904;2022-12-07T07:22:03;17.17;;;9.53;;
4835;SDS011;2432;51.226;6.904;2022-12-07T07:24:30;26.37;;;9.90;;
4835;SDS011;2432;51.226;6.904;2022-12-07T07:26:56;21.23;;;9.87;;
4835;SDS011;2432;51.226;6.904;2022-12-07T07:29:23;20.50;;;9.33;;
4835;SDS011;2432;51.226;6.904;2022-12-07T07:31:49;19.00;;;9.23;;
4835;SDS011;2432;51.226;6.904;2022-12-07T07:34:16;25.87;;;9.50;;
4835;SDS011;2432;51.226;6.904;2022-12-07T07:36:42;19.00;;;9.37;;
4835;SDS011;2432;51.226;6.904;2022-12-07T07:39:09;23.80;;;9.20;;
4835;SDS011;2432;51.226;6.904;2022-12-07T07:41:38;24.17;;;10.20;;
4835;SDS011;2432;51.226;6.904;2022-12-07T07:44:05;24.93;;;11.00;;
4835;SDS011;2432;51.226;6.904;2022-12-07T07:46:31;29.40;;;13.30;;
4835;SDS011;2432;51.226;6.904;2022-12-07T07:48:59;20.07;;;9.80;;
4835;SDS011;2432;51.226;6.904;2022-12-07T07:51:25;19.37;;;8.87;;
4835;SDS011;2432;51.226;6.904;2022-12-07T07:53:52;21.03;;;10.17;;
4835;SDS011;2432;51.226;6.904;2022-12-07T07:56:18;19.10;;;9.53;;
4835;SDS011;2432;51.226;6.904;2022-12-07T07:58:45;22.20;;;9.43;;
4835;SDS011;2432;51.226;6.904;2022-12-07T08:01:12;23.33;;;11.07;;
4835;SDS011;2432;51.226;6.904;2022-12-07T08:03:39;18.20;;;9.23;;
4835;SDS011;2432;51.226;6.904;2022-12-07T08:06:06;21.57;;;9.57;;
4835;SDS011;2432;51.226;6.904;2022-12-07T08:08:32;26.70;;;10.70;;
4835;SDS011;2432;51.226;6.904;2022-12-07T08:10:59;20.90;;;10.60;;
4835;SDS011;2432;51.226;6.904;2022-12-07T08:13:27;19.20;;;9.60;;
4835;SDS011;2432;51.226;6.904;2022-12-07T08:15:57;23.53;;;10.73;;
4835;SDS011;2432;51.226;6.904;2022-12-07T08:18:24;33.50;;;11.13;;
4835;SDS011;2432;51.226;6.904;2022-12-07T08:20:50;20.97;;;10.90;;
4835;SDS011;2432;51.226;6.904;2022-12-07T08:23:17;28.43;;;11.97;;
4835;SDS011;2432;51.226;6.904;2022-12-07T08:25:43;25.77;;;12.20;;
4835;SDS011;2432;51.226;6.904;2022-12-07T08:28:10;24.13;;;9.50;;
4835;SDS011;2432;51.226;6.904;2022-12-07T08:33:30;25.60;;;10.00;;
4835;SDS011;2432;51.226;6.904;2022-12-07T08:36:02;22.77;;;10.03;;
4835;SDS011;2432;51.226;6.904;2022-12-07T08:38:36;21.50;;;9.33;;
4835;SDS011;2432;51.226;6.904;2022-12-07T08:41:04;17.97;;;8.50;;
4835;SDS011;2432;51.226;6.904;2022-12-07T08:43:30;19.63;;;7.90;;
4835;SDS011;2432;51.226;6.904;2022-12-07T08:46:09;17.47;;;8.23;;
4835;SDS011;2432;51.226;6.904;2022-12-07T08:48:41;18.80;;;8.30;;
4835;SDS011;2432;51.226;6.904;2022-12-07T08:51:12;17.90;;;8.47;;
4835;SDS011;2432;51.226;6.904;2022-12-07T08:53:40;25.27;;;9.00;;
4835;SDS011;2432;51.226;6.904;2022-12-07T08:56:07;24.17;;;8.13;;
4835;SDS011;2432;51.226;6.904;2022-12-07T08:58:35;26.50;;;8.13;;
4835;SDS011;2432;51.226;6.904;2022-12-07T09:01:03;22.00;;;8.83;;
4835;SDS011;2432;51.226;6.904;2022-12-07T09:03:31;18.03;;;8.10;;
4835;SDS011;2432;51.226;6.904;2022-12-07T09:05:57;21.50;;;7.40;;
4835;SDS011;2432;51.226;6.904;2022-12-07T09:08:26;19.37;;;8.47;;
4835;SDS011;2432;51.226;6.904;2022-12-07T09:11:04;19.60;;;8.13;;
4835;SDS011;2432;51.226;6.904;2022-12-07T09:13:31;17.30;;;7.20;;
4835;SDS011;2432;51.226;6.904;2022-12-07T09:15:57;25.40;;;8.27;;
4835;SDS011;2432;51.226;6.904;2022-12-07T09:18:24;24.23;;;7.53;;
4835;SDS011;2432;51.226;6.904;2022-12-07T09:20:50;20.53;;;6.50;;
4835;SDS011;2432;51.226;6.904;2022-12-07T09:23:17;16.43;;;7.30;;
4835;SDS011;2432;51.226;6.904;2022-12-07T09:25:44;22.80;;;8.03;;
4835;SDS011;2432;51.226;6.904;2022-12-07T09:28:10;22.30;;;7.80;;
4835;SDS011;2432;51.226;6.904;2022-12-07T09:30:37;14.73;;;6.17;;
4835;SDS011;2432;51.226;6.904;2022-12-07T09:33:23;18.07;;;6.80;;
4835;SDS011;2432;51.226;6.904;2022-12-07T09:35:50;19.37;;;7.00;;
4835;SDS011;2432;51.226;6.904;2022-12-07T09:38:19;18.23;;;6.23;;
4835;SDS011;2432;51.226;6.904;2022-12-07T09:40:46;17.93;;;6.40;;
4835;SDS011;2432;51.226;6.904;2022-12-07T09:43:13;19.03;;;6.90;;
4835;SDS011;2432;51.226;6.904;2022-12-07T09:45:42;20.03;;;7.43;;
4835;SDS011;2432;51.226;6.904;2022-12-07T09:48:16;18.50;;;7.40;;
4835;SDS011;2432;51.226;6.904;2022-12-07T09:50:45;19.80;;;6.43;;
4835;SDS011;2432;51.226;6.904;2022-12-07T09:53:20;21.60;;;6.57;;
4835;SDS011;2432;51.226;6.904;2022-12-07T09:55:51;17.50;;;6.40;;
4835;SDS011;2432;51.226;6.904;2022-12-07T09:58:23;20.83;;;6.90;;
4835;SDS011;2432;51.226;6.904;2022-12-07T10:00:55;21.17;;;6.00;;
4835;SDS011;2432;51.226;6.904;2022-12-07T10:03:28;17.63;;;5.47;;
4835;SDS011;2432;51.226;6.904;2022-12-07T10:05:55;16.00;;;5.93;;
4835;SDS011;2432;51.226;6.904;2022-12-07T10:08:24;17.73;;;5.60;;
4835;SDS011;2432;51.226;6.904;2022-12-07T10:10:52;19.53;;;6.70;;
4835;SDS011;2432;51.226;6.904;2022-12-07T10:13:33;20.50;;;6.53;;
4835;SDS011;2432;51.226;6.904;2022-12-07T10:16:01;19.00;;;7.00;;
4835;SDS011;2432;51.226;6.904;2022-12-07T10:18:39;20.20;;;7.03;;
4835;SDS011;2432;51.226;6.904;2022-12-07T10:23:34;15.70;;;6.00;;
4835;SDS011;2432;51.226;6.904;2022-12-07T10:26:21;16.60;;;6.77;;
4835;SDS011;2432;51.226;6.904;2022-12-07T10:28:55;22.27;;;7.97;;
4835;SDS011;2432;51.226;6.904;2022-12-07T10:31:25;15.77;;;6.47;;
4835;SDS011;2432;51.226;6.904;2022-12-07T10:33:53;18.90;;;7.60;;
4835;SDS011;2432;51.226;6.904;2022-12-07T10:36:34;21.80;;;6.90;;
4835;SDS011;2432;51.226;6.904;2022-12-07T10:39:13;17.10;;;5.53;;
4835;SDS011;2432;51.226;6.904;2022-12-07T10:44:21;20.80;;;7.37;;
4835;SDS011;2432;51.226;6.904;2022-12-07T10:46:52;17.40;;;5.70;;
4835;SDS011;2432;51.226;6.904;2022-12-07T10:52:13;22.80;;;5.87;;
4835;SDS011;2432;51.226;6.904;2022-12-07T10:57:56;21.33;;;6.50;;
4835;SDS011;2432;51.226;6.904;2022-12-07T11:03:37;16.00;;;6.37;;
4835;SDS011;2432;51.226;6.904;2022-12-07T11:17:58;15.77;;;5.60;;
4835;SDS011;2432;51.226;6.904;2022-12-07T11:36:54;16.47;;;5.40;;
4835;SDS011;2432;51.226;6.904;2022-12-07T11:45:00;17.67;;;5.30;;
4835;SDS011;2432;51.226;6.904;2022-12-07T11:47:50;16.80;;;4.93;;
4835;SDS011;2432;51.226;6.904;2022-12-07T11:55:56;28.83;;;9.87;;
4835;SDS011;2432;51.226;6.904;2022-12-07T12:06:39;14.60;;;4.43;;
4835;SDS011;2432;51.226;6.904;2022-12-07T12:15:09;19.87;;;4.70;;
4835;SDS011;2432;51.226;6.904;2022-12-07T12:23:11;18.83;;;5.50;;
4835;SDS011;2432;51.226;6.904;2022-12-07T12:25:50;20.87;;;5.70;;
4835;SDS011;2432;51.226;6.904;2022-12-07T12:28:41;16.50;;;4.70;;
4835;SDS011;2432;51.226;6.904;2022-12-07T12:33:52;19.23;;;6.53;;
4835;SDS011;2432;51.226;6.904;2022-12-07T12:38:48;19.60;;;5.43;;
4835;SDS011;2432;51.226;6.904;2022-12-07T12:46:46;26.30;;;5.20;;
4835;SDS011;2432;51.226;6.904;2022-12-07T12:51:42;27.10;;;9.67;;
4835;SDS011;2432;51.226;6.904;2022-12-07T12:54:12;22.10;;;7.73;;
4835;SDS011;2432;51.226;6.904;2022-12-07T12:57:28;23.10;;;6.70;;
4835;SDS011;2432;51.226;6.904;2022-12-07T13:02:22;18.73;;;4.80;;
4835;SDS011;2432;51.226;6.904;2022-12-07T13:04:58;16.03;;;5.10;;
4835;SDS011;2432;51.226;6.904;2022-12-07T13:15:53;17.00;;;5.07;;
4835;SDS011;2432;51.226;6.904;2022-12-07T13:18:42;16.63;;;4.00;;
4835;SDS011;2432;51.226;6.904;2022-12-07T13:26:22;14.97;;;4.43;;
4835;SDS011;2432;51.226;6.904;2022-12-07T13:28:54;15.37;;;3.93;;
4835;SDS011;2432;51.226;6.904;2022-12-07T13:31:53;17.00;;;4.40;;
4835;SDS011;2432;51.226;6.904;2022-12-07T13:36:56;13.90;;;3.80;;
4835;SDS011;2432;51.226;6.904;2022-12-07T13:39:23;17.30;;;3.97;;
4835;SDS011;2432;51.226;6.904;2022-12-07T13:41:55;16.77;;;3.93;;
4835;SDS011;2432;51.226;6.904;2022-12-07T13:44:25;15.83;;;3.70;;
4835;SDS011;2432;51.226;6.904;2022-12-07T13:49:24;16.40;;;3.93;;
4835;SDS011;2432;51.226;6.904;2022-12-07T13:51:53;15.63;;;3.70;;
4835;SDS011;2432;51.226;6.904;2022-12-07T13:54:21;16.23;;;2.83;;
4835;SDS011;2432;51.226;6.904;2022-12-07T13:56:51;11.27;;;2.70;;
4835;SDS011;2432;51.226;6.904;2022-12-07T13:59:23;13.40;;;2.80;;
4835;SDS011;2432;51.226;6.904;2022-12-07T14:01:52;11.20;;;2.97;;
4835;SDS011;2432;51.226;6.904;2022-12-07T14:04:28;26.60;;;5.00;;
4835;SDS011;2432;51.226;6.904;2022-12-07T14:06:55;17.57;;;4.37;;
4835;SDS011;2432;51.226;6.904;2022-12-07T14:09:23;14.47;;;3.80;;
4835;SDS011;2432;51.226;6.904;2022-12-07T14:11:55;14.20;;;3.90;;
4835;SDS011;2432;51.226;6.904;2022-12-07T14:14:24;14.73;;;2.57;;
4835;SDS011;2432;51.226;6.904;2022-12-07T14:17:18;15.57;;;3.17;;
4835;SDS011;2432;51.226;6.904;2022-12-07T14:19:53;13.43;;;3.10;;
4835;SDS011;2432;51.226;6.904;2022-12-07T14:22:28;19.93;;;2.77;;
4835;SDS011;2432;51.226;6.904;2022-12-07T14:25:14;19.17;;;3.63;;
4835;SDS011;2432;51.226;6.904;2022-12-07T14:27:48;23.47;;;8.60;;
4835;SDS011;2432;51.226;6.904;2022-12-07T14:30:19;19.33;;;3.27;;
4835;SDS011;2432;51.226;6.904;2022-12-07T14:32:46;18.43;;;3.63;;
4835;SDS011;2432;51.226;6.904;2022-12-07T14:35:21;19.10;;;3.30;;
4835;SDS011;2432;51.226;6.904;2022-12-07T14:37:48;25.87;;;5.47;;
4835;SDS011;2432;51.226;6.904;2022-12-07T14:40:22;17.53;;;3.77;;
4835;SDS011;2432;51.226;6.904;2022-12-07T14:42:51;14.43;;;2.80;;
4835;SDS011;2432;51.226;6.904;2022-12-07T14:45:26;12.53;;;2.80;;
4835;SDS011;2432;51.226;6.904;2022-12-07T14:47:53;17.03;;;3.13;;
4835;SDS011;2432;51.226;6.904;2022-12-07T14:50:49;15.80;;;3.97;;
4835;SDS011;2432;51.226;6.904;2022-12-07T14:53:39;15.83;;;3.10;;
4835;SDS011;2432;51.226;6.904;2022-12-07T14:56:09;15.77;;;3.27;;
4835;SDS011;2432;51.226;6.904;2022-12-07T14:58:36;12.27;;;3.40;;
4835;SDS011;2432;51.226;6.904;2022-12-07T15:01:02;22.03;;;4.70;;
4835;SDS011;2432;51.226;6.904;2022-12-07T15:03:29;16.93;;;3.50;;
4835;SDS011;2432;51.226;6.904;2022-12-07T15:05:56;14.93;;;3.37;;
4835;SDS011;2432;51.226;6.904;2022-12-07T15:08:23;17.80;;;3.13;;
4835;SDS011;2432;51.226;6.904;2022-12-07T15:10:50;20.30;;;3.87;;
4835;SDS011;2432;51.226;6.904;2022-12-07T15:13:16;21.40;;;3.57;;
4835;SDS011;2432;51.226;6.904;2022-12-07T15:16:01;21.87;;;4.60;;
4835;SDS011;2432;51.226;6.904;2022-12-07T15:18:28;22.80;;;5.03;;
4835;SDS011;2432;51.226;6.904;2022-12-07T15:20:54;15.73;;;3.70;;
4835;SDS011;2432;51.226;6.904;2022-12-07T15:23:21;19.90;;;4.17;;
4835;SDS011;2432;51.226;6.904;2022-12-07T15:25:48;17.80;;;5.87;;
4835;SDS011;2432;51.226;6.904;2022-12-07T15:28:15;19.30;;;5.67;;
4835;SDS011;2432;51.226;6.904;2022-12-07T15:30:42;17.43;;;3.87;;
4835;SDS011;2432;51.226;6.904;2022-12-07T15:33:10;16.17;;;4.80;;
4835;SDS011;2432;51.226;6.904;2022-12-07T15:35:38;13.27;;;3.87;;
4835;SDS011;2432;51.226;6.904;2022-12-07T15:38:06;46.80;;;4.90;;
4835;SDS011;2432;51.226;6.904;2022-12-07T15:40:32;21.13;;;5.03;;
4835;SDS011;2432;51.226;6.904;2022-12-07T15:42:59;19.27;;;4.20;;
4835;SDS011;2432;51.226;6.904;2022-12-07T15:45:25;25.90;;;4.83;;
4835;SDS011;2432;51.226;6.904;2022-12-07T15:47:52;24.70;;;4.47;;
4835;SDS011;2432;51.226;6.904;2022-12-07T15:50:40;22.77;;;4.70;;
4835;SDS011;2432;51.226;6.904;2022-12-07T15:53:07;30.43;;;6.43;;
4835;SDS011;2432;51.226;6.904;2022-12-07T15:55:33;21.17;;;4.90;;
4835;SDS011;2432;51.226;6.904;2022-12-07T15:58:00;20.67;;;6.40;;
4835;SDS011;2432;51.226;6.904;2022-12-07T16:00:27;16.07;;;4.93;;
4835;SDS011;2432;51.226;6.904;2022-12-07T16:02:53;19.37;;;5.00;;
4835;SDS011;2432;51.226;6.904;2022-12-07T16:05:20;21.50;;;6.00;;
4835;SDS011;2432;51.226;6.904;2022-12-07T16:07:46;19.63;;;5.37;;
4835;SDS011;2432;51.226;6.904;2022-12-07T16:10:13;21.40;;;5.30;;
4835;SDS011;2432;51.226;6.904;2022-12-07T16:12:40;19.87;;;5.67;;
4835;SDS011;2432;51.226;6.904;2022-12-07T16:15:06;32.10;;;5.50;;
4835;SDS011;2432;51.226;6.904;2022-12-07T16:17:33;18.27;;;6.60;;
4835;SDS011;2432;51.226;6.904;2022-12-07T16:20:00;26.03;;;6.17;;
4835;SDS011;2432;51.226;6.904;2022-12-07T16:22:26;24.57;;;6.60;;
4835;SDS011;2432;51.226;6.904;2022-12-07T16:24:53;25.77;;;7.10;;
4835;SDS011;2432;51.226;6.904;2022-12-07T16:27:19;20.53;;;5.60;;
4835;SDS011;2432;51.226;6.904;2022-12-07T16:29:46;19.23;;;6.43;;
4835;SDS011;2432;51.226;6.904;2022-12-07T16:32:12;19.40;;;6.60;;
4835;SDS011;2432;51.226;6.904;2022-12-07T16:34:39;18.70;;;6.20;;
4835;SDS011;2432;51.226;6.904;2022-12-07T16:37:05;21.00;;;6.37;;
4835;SDS011;2432;51.226;6.904;2022-12-07T16:39:32;20.73;;;5.80;;
4835;SDS011;2432;51.226;6.904;2022-12-07T16:42:00;18.50;;;5.87;;
4835;SDS011;2432;51.226;6.904;2022-12-07T16:44:26;19.77;;;6.00;;
4835;SDS011;2432;51.226;6.904;2022-12-07T16:46:53;21.33;;;7.33;;
4835;SDS011;2432;51.226;6.904;2022-12-07T16:49:20;16.67;;;6.10;;
4835;SDS011;2432;51.226;6.904;2022-12-07T16:51:49;19.37;;;7.20;;
4835;SDS011;2432;51.226;6.904;2022-12-07T16:54:36;15.53;;;5.80;;
4835;SDS011;2432;51.226;6.904;2022-12-07T16:57:03;22.53;;;5.70;;
4835;SDS011;2432;51.226;6.904;2022-12-07T16:59:29;18.83;;;6.20;;
4835;SDS011;2432;51.226;6.904;2022-12-07T17:01:55;16.33;;;5.77;;
4835;SDS011;2432;51.226;6.904;2022-12-07T17:04:22;18.80;;;6.70;;
4835;SDS011;2432;51.226;6.904;2022-12-07T17:06:48;17.53;;;6.33;;
4835;SDS011;2432;51.226;6.904;2022-12-07T17:09:15;15.87;;;6.37;;
4835;SDS011;2432;51.226;6.904;2022-12-07T17:11:47;22.80;;;6.77;;
4835;SDS011;2432;51.226;6.904;2022-12-07T17:14:14;17.63;;;8.80;;
4835;SDS011;2432;51.226;6.904;2022-12-07T17:16:59;19.63;;;8.13;;
4835;SDS011;2432;51.226;6.904;2022-12-07T17:19:28;19.20;;;8.13;;
4835;SDS011;2432;51.226;6.904;2022-12-07T17:21:55;18.20;;;6.47;;
4835;SDS011;2432;51.226;6.904;2022-12-07T17:24:21;17.63;;;6.40;;
4835;SDS011;2432;51.226;6.904;2022-12-07T17:26:48;17.80;;;7.43;;
4835;SDS011;2432;51.226;6.904;2022-12-07T17:29:16;17.37;;;6.63;;
4835;SDS011;2432;51.226;6.904;2022-12-07T17:31:44;17.20;;;6.50;;
4835;SDS011;2432;51.226;6.904;2022-12-07T17:34:16;25.17;;;7.23;;
4835;SDS011;2432;51.226;6.904;2022-12-07T17:36:44;22.87;;;7.23;;
4835;SDS011;2432;51.226;6.904;2022-12-07T17:39:12;20.73;;;7.30;;